AirNav   ATP
 
 1056 users online  

44L Wilshire Area Heliport
Los Angeles, California, USA

GOING TO LOS ANGELES?


FAA INFORMATION EFFECTIVE 20 JULY 2017

Location

FAA Identifier: 44L
Lat/Long: 34-02-50.1000N / 118-20-34.4000W
34-02.835000N / 118-20.573333W
34.0472500 / -118.3428889
(estimated)
Elevation: 150 ft. / 46 m (estimated)
Variation: 14E (1985)
From city: 6 miles E of LOS ANGELES, CA
Time zone: UTC -7 (UTC -8 during Standard Time)
Zip code: 90019

Heliport Operations

Heliport use: Private use. Permission required prior to landing
Activation date: 06/1974
Control tower: no
ARTCC: LOS ANGELES CENTER
FSS: HAWTHORNE FLIGHT SERVICE STATION
Attendance: CONTINUOUS
Wind indicator: yes
Segmented circle: no
Lights: FOR PERIMETER LGTS; PHONE 213-485-2600.

Heliport Communications

UNICOM: 123.05
WX ASOS at SMO (6 nm W): PHONE 310-392-6453
WX ASOS at LAX (7 nm SW): PHONE 310-568-1486
WX ASOS at HHR (7 nm S): PHONE 310-973-8930
WX ASOS at BUR (9 nm N): PHONE 818-841-1384
WX AWOS-3PT at CPM (11 nm SE): 127.150 (310-631-4958)
WX ASOS at VNY (12 nm NW): PHONE 818-904-9213
WX AWOS-3PT at WHP (13 nm N): 132.1 (818-899-9820)
WX AWOS-3PT at EMT (15 nm E): 118.75 ((626) 444-1107)
WX ASOS at LGB (17 nm SE): PHONE 562-424-0572

Nearby radio navigation aids

VOR radial/distance  VOR name  Freq  Var
SMOr054/6.1SANTA MONICA VOR/DME110.8015E
LAXr018/8.2LOS ANGELES VORTAC113.6015E
VNYr130/12.9VAN NUYS VOR/DME113.1015E
SLIr303/21.4SEAL BEACH VORTAC115.7015E
POMr251/27.7POMONA VORTAC110.4015E
FIMr110/32.5FILLMORE VORTAC112.5015E
VTUr082/35.3VENTURA VOR/DME108.2015E
PMDr187/37.7PALMDALE VORTAC114.5015E
ELBr292/37.8EL TORO VOR/DME117.2014E
CMAr090/38.6CAMARILLO VOR/DME115.8015E
LHSr148/39.9LAKE HUGHES VORTAC108.4015E

 
NDB name  Hdg/Dist  Freq  Var  ID
PACOIMA150/13.237015EPAI .--. .- ..
EL MONTE246/15.735915EEMT . -- -

Heliport Services

Airframe service: NONE
Powerplant service: NONE

Runway Information

Helipad H1

Dimensions: 50 x 40 ft. / 15 x 12 m
Surface: concrete
Runway edge lights: PERIMETER LGTS.
Latitude: 34-02.835000N
Longitude: 118-20.573333W
Elevation: 150.0 ft.
Traffic pattern: leftleft

Heliport Ownership and Management from official FAA records

Ownership: Publicly-owned
Owner: CITY OF LOS ANGELES
555 RAMIREZ ST.SPACE 475
LOS ANGELES, CA 90012
Manager: C.O.-AIR SUPPORT DIV-LAPD
150 N. LOS ANGELES STREET
LOS ANGELES, CA 90012
Phone 213-485-2600

Additional Remarks

A52-H1 UNLGTD/UNMKD PLINES SOUTH & TREES WEST.
RSTRD LNDG POLICE BUS ONLY. PHONE AIR SUPPORT DIV WATCH COMMANDER 213-485-2600 FOR APVL PRIOR TO FLIGHT; THEN CTC KMB7 ON 123.050 PRIOR TO LNDG AT HELI.

Instrument Procedures

There are no published instrument procedures at 44L.

Some nearby airports with instrument procedures:

KSMO - Santa Monica Municipal Airport (6 nm W)
KLAX - Los Angeles International Airport (7 nm SW)
KHHR - Jack Northrop Field/Hawthorne Municipal Airport (7 nm S)
KBUR - Bob Hope Airport (9 nm N)
KVNY - Van Nuys Airport (12 nm NW)
KWHP - Whiteman Airport (13 nm N)
KTOA - Zamperini Field Airport (15 nm S)
KEMT - San Gabriel Valley Airport (15 nm E)
KLGB - Long Beach Airport (Daugherty Field) (17 nm SE)
 
Loc | Ops | Rwys | IFR | FBO | Links
Com | Nav | Svcs | Stats | Notes


 
Area around 44L (Wilshire Area Heliport)
 
Road maps at: MapQuest Bing Google
 
Aerial photo
No photo
 
Sectional chart

 
Airport distance calculator
Flying to Wilshire Area Heliport? Find the distance to fly.

From to 44L

Sunrise and sunset
Times for 22-Jul-2017
 Local
(UTC-7)
 Zulu
(UTC)
Morning civil twilight05:3112:31
Sunrise05:5912:59
Sunset20:0103:01
Evening civil twilight20:2903:29

Current date and time
Zulu (UTC)  22-Jul-2017 14:49:45
Local (UTC-7)  22-Jul-2017 07:49:45
 
METAR
KCQT 
5nm E 
221356Z AUTO 00000KT 6SM HZ SCT013 21/17 A2990 RMK AO2 T02060172 $
KSMO 
6nm W 
221351Z 00000KT 8SM SCT012 19/17 A2992 RMK AO2 SLP128 T01890172
KLAX 
7nm S 
221435Z VRB03KT 7SM SCT012 21/18 A2992 RMK AO2 T02110178
KHHR 
8nm S 
221427Z 09004KT 7SM SCT013 21/17 A2992 RMK AO2 T02060172
KBUR 
9nm N 
221353Z 16003KT 10SM 19/16 A2992 RMK AO2 SLP119 T01940156 $
KVNY 
12nm NW 
221351Z 00000KT 9SM CLR 19/17 A2992 RMK AO2 SLP122 T01890167
KWHP 
13nm N 
220255Z 12005KT 10SM SKC 27/14 A2991 RMK LAST
KTOA 
16nm S 
221347Z 00000KT 7SM BKN012 20/17 A2991
KEMT 
16nm E 
220248Z 20008KT 10SM CLR 25/16 A2988
KLGB 
17nm SE 
221353Z 00000KT 8SM OVC013 21/17 A2991 RMK AO2 SLP127 T02110172
TAF
KSMO 
6nm W 
221301Z 2213/2312 VRB03KT P6SM SCT013 FM221800 22005KT P6SM SKC FM222100 24009KT P6SM SKC FM230300 VRB03KT P6SM SKC FM231100 VRB03KT P6SM OVC012
KLAX 
7nm S 
221136Z 2212/2318 VRB03KT P6SM OVC012 FM221700 24006KT 6SM HZ SCT015 FM221900 26011KT P6SM SKC FM230900 26007KT P6SM BKN009 FM231100 VRB03KT 6SM BR OVC012 FM231700 25006KT 6SM HZ SCT015
KBUR 
9nm N 
221136Z 2212/2312 VRB05KT P6SM SKC FM221900 17008KT P6SM SKC FM230300 VRB05KT P6SM SKC
KVNY 
12nm NW 
221136Z 2212/2312 VRB03KT P6SM SKC FM221900 14008KT P6SM SKC FM230300 VRB03KT P6SM SKC
KLGB 
17nm SE 
221136Z 2212/2312 VRB05KT P6SM OVC011 FM221600 VRB03KT P6SM SKC FM221900 19007KT P6SM SKC FM230300 VRB03KT P6SM SKC FM231000 VRB03KT 6SM BR OVC011
NOTAMs
Click for the latest NOTAMs
NOTAMs are issued by the DoD/FAA and will open in a separate window not controlled by AirNav.

 

 
 

Would you like to see your business listed on this page?

 If your business provides an interesting product or service to pilots, flight crews, aircraft, or users of the Wilshire Area Heliport, you should consider listing it here.  To start the listing process, click on the button below
 
Add a business
 

Other Pages about Wilshire Area Heliport

Update a link
 
Copyright © AirNav, LLC. All rights reserved. Privacy Policy  Contact